createdAt,value
2017-07-06T05:31:10.704Z,75.11
2017-07-06T05:31:36.191Z,75.11
2017-07-06T05:32:01.692Z,75.4
2017-07-06T05:32:27.174Z,75.4
2017-07-06T05:32:52.650Z,75.31
2017-07-06T05:33:18.152Z,74.73
2017-07-06T05:33:43.627Z,75.24
2017-07-06T05:34:09.121Z,74.63
2017-07-06T05:34:34.589Z,74.86
2017-07-06T05:35:00.051Z,75.15
2017-07-06T05:35:25.528Z,74.96
2017-07-06T05:35:51.022Z,74.86
2017-07-06T05:36:16.488Z,74.76
2017-07-06T05:36:41.940Z,74.76
2017-07-06T05:37:07.389Z,74.76
2017-07-06T05:37:32.833Z,74.57
2017-07-06T05:37:58.287Z,74.38
2017-07-06T05:38:23.734Z,74.38
2017-07-06T05:38:49.206Z,74.48
2017-07-06T05:39:14.690Z,74.29
2017-07-06T05:39:40.284Z,74.09
2017-07-06T05:40:05.668Z,74.38
2017-07-06T05:40:31.108Z,74.19
2017-07-06T05:40:56.568Z,74.19
2017-07-06T05:41:22.023Z,74.09
2017-07-06T05:41:47.486Z,74.03
2017-07-06T05:42:12.978Z,73.51
2017-07-06T05:42:38.402Z,73.71
2017-07-06T05:43:03.874Z,73.74
2017-07-06T05:43:29.351Z,73.55
2017-07-06T05:43:54.787Z,73.46
2017-07-06T05:44:20.296Z,73.55
2017-07-06T05:44:45.734Z,73.55
2017-07-06T05:45:11.194Z,73.46
2017-07-06T05:45:36.703Z,73.36
2017-07-06T05:46:02.150Z,73.36
2017-07-06T05:46:27.621Z,73.46
2017-07-06T05:46:53.069Z,73.07
2017-07-06T05:47:18.548Z,72.88
2017-07-06T05:47:44.033Z,73.36
2017-07-06T05:48:09.502Z,73.36
2017-07-06T05:48:35.004Z,72.97
2017-07-06T05:49:00.518Z,73.07
2017-07-06T05:49:25.940Z,72.97
2017-07-06T05:49:51.446Z,72.88
2017-07-06T05:50:16.908Z,72.59
2017-07-06T05:50:42.352Z,72.68
2017-07-06T05:51:07.821Z,72.68
2017-07-06T05:51:33.348Z,72.05
2017-07-06T05:51:58.827Z,71.91
2017-07-06T05:52:24.278Z,72.11
2017-07-06T05:52:49.802Z,72.01
2017-07-06T05:53:15.372Z,71.95
2017-07-06T05:53:40.809Z,72.05
2017-07-06T05:54:06.296Z,72.01
2017-07-06T05:54:31.786Z,72.24
2017-07-06T05:54:57.244Z,72.2
2017-07-06T05:55:22.701Z,71.85
2017-07-06T05:55:48.177Z,71.66
2017-07-06T05:56:13.646Z,71.95
2017-07-06T05:56:39.141Z,71.95
2017-07-06T05:57:04.622Z,71.66
2017-07-06T05:57:30.117Z,71.47
2017-07-06T05:57:55.674Z,71.56
2017-07-06T05:58:21.033Z,71.56
2017-07-06T05:58:46.550Z,71.85
2017-07-06T05:59:11.988Z,71.76
2017-07-06T05:59:37.472Z,71.76
2017-07-06T06:00:02.897Z,71.76
2017-07-06T06:00:28.450Z,71.85
2017-07-06T06:00:53.876Z,71.95
2017-07-06T06:01:19.344Z,71.95
2017-07-06T06:01:44.774Z,71.85
2017-07-06T06:02:10.234Z,71.66
2017-07-06T06:02:35.725Z,70.98
2017-07-06T06:03:01.178Z,71.08
2017-07-06T06:03:26.645Z,71.37
2017-07-06T06:03:52.127Z,70.79
2017-07-06T06:04:17.598Z,71.37
2017-07-06T06:04:43.064Z,70.6
2017-07-06T06:05:08.529Z,70.54
2017-07-06T06:05:33.962Z,70.83
2017-07-06T06:05:59.507Z,70.92
2017-07-06T06:06:24.989Z,70.64
2017-07-06T06:06:50.477Z,70.41
2017-07-06T06:07:15.903Z,70.83
2017-07-06T06:07:41.444Z,70.64
2017-07-06T06:08:06.907Z,70.54
2017-07-06T06:08:32.323Z,70.64
2017-07-06T06:08:57.802Z,70.35
2017-07-06T06:09:23.278Z,70.64
2017-07-06T06:09:48.715Z,70.73
2017-07-06T06:10:14.195Z,70.06
2017-07-06T06:10:39.714Z,70.15
2017-07-06T06:11:05.193Z,70.35
2017-07-06T06:11:30.682Z,70.15
2017-07-06T06:11:56.161Z,70.15
2017-07-06T06:12:21.597Z,69.87
2017-07-06T06:12:47.106Z,69.48
2017-07-06T06:13:12.574Z,69.48
2017-07-06T06:13:38.041Z,69.48
2017-07-06T06:14:03.555Z,69.57
2017-07-06T06:14:28.972Z,69.67
2017-07-06T06:14:54.427Z,69.87
2017-07-06T06:15:19.860Z,69.77
2017-07-06T06:15:45.339Z,69.77
2017-07-06T06:16:10.829Z,69.48
2017-07-06T06:16:36.308Z,69.77
2017-07-06T06:17:01.739Z,69.57
2017-07-06T06:17:27.223Z,69.77
2017-07-06T06:17:52.671Z,69.96
2017-07-06T06:18:18.137Z,69.87
2017-07-06T06:18:43.602Z,69.77
2017-07-06T06:19:09.075Z,69.77
2017-07-06T06:19:34.569Z,69.57
2017-07-06T06:20:00.051Z,69.77
2017-07-06T06:20:25.501Z,69.38
2017-07-06T06:20:50.960Z,69.67
2017-07-06T06:21:16.492Z,69.51
2017-07-06T06:21:41.946Z,69.23
2017-07-06T06:22:07.401Z,69.32
2017-07-06T06:22:32.850Z,69.32
2017-07-06T06:22:58.321Z,69.32
2017-07-06T06:23:23.805Z,69.13
2017-07-06T06:23:49.291Z,69.32
2017-07-06T06:24:14.773Z,68.84
2017-07-06T06:24:40.267Z,68.65
2017-07-06T06:25:05.778Z,68.84
2017-07-06T06:25:31.327Z,68.84
2017-07-06T06:25:56.866Z,68.26
2017-07-06T06:26:22.287Z,68.45
2017-07-06T06:26:47.788Z,68.45
2017-07-06T06:27:13.242Z,68.65
2017-07-06T06:27:38.689Z,68.19
2017-07-06T06:28:04.196Z,68.1
2017-07-06T06:28:29.680Z,68.39
2017-07-06T06:28:55.114Z,68.1
2017-07-06T06:29:20.585Z,68.01
2017-07-06T06:29:46.036Z,68.19
2017-07-06T06:30:11.473Z,67.62
2017-07-06T06:30:36.969Z,67.71
2017-07-06T06:31:02.425Z,67.71
2017-07-06T06:31:27.893Z,68.01
2017-07-06T06:31:53.347Z,68.1
2017-07-06T06:32:18.827Z,67.71
2017-07-06T06:32:44.307Z,68.01
2017-07-06T06:33:09.766Z,67.71
2017-07-06T06:33:35.222Z,67.62
2017-07-06T06:34:00.690Z,67.62
2017-07-06T06:34:26.156Z,67.71
2017-07-06T06:34:51.624Z,67.52
2017-07-06T06:35:17.098Z,67.52
2017-07-06T06:35:42.542Z,67.52
2017-07-06T06:36:08.041Z,67.46
2017-07-06T06:36:33.492Z,67.43
2017-07-06T06:36:58.945Z,66.94
2017-07-06T06:37:24.452Z,66.75
2017-07-06T06:37:49.880Z,66.46
2017-07-06T06:38:15.349Z,67.04
2017-07-06T06:38:40.819Z,67.23
2017-07-06T06:39:06.310Z,66.88
2017-07-06T06:39:31.771Z,66.49
2017-07-06T06:39:57.249Z,66.69
2017-07-06T06:40:22.704Z,66.49
2017-07-06T06:40:48.158Z,66.69
2017-07-06T06:41:13.640Z,66.78
2017-07-06T06:41:39.120Z,66.78
2017-07-06T06:42:04.585Z,66.97
2017-07-06T06:42:30.018Z,66.59
2017-07-06T06:42:55.479Z,66.2
2017-07-06T06:43:20.924Z,66.2
2017-07-06T06:43:46.387Z,66.3
2017-07-06T06:44:11.862Z,66.69
2017-07-06T06:44:37.347Z,66.2
2017-07-06T06:45:02.825Z,66.11
2017-07-06T06:45:28.293Z,66.49
2017-07-06T06:45:53.732Z,66.49
2017-07-06T06:46:19.209Z,66.4
2017-07-06T06:46:44.707Z,66.11
2017-07-06T06:47:10.214Z,66.3
2017-07-06T06:47:35.682Z,66.4
2017-07-06T06:48:01.129Z,66.3
2017-07-06T06:48:26.600Z,66.11
2017-07-06T06:48:52.130Z,66.2
2017-07-06T06:49:17.597Z,66.4
2017-07-06T06:49:43.090Z,65.82
2017-07-06T06:50:08.585Z,65.91
2017-07-06T06:50:34.045Z,65.82
2017-07-06T06:50:59.507Z,65.43
2017-07-06T06:51:24.972Z,65.43
2017-07-06T06:51:50.467Z,65.14
2017-07-06T06:52:15.939Z,65.53
2017-07-06T06:52:41.483Z,65.43
2017-07-06T06:53:06.873Z,65.53
2017-07-06T06:53:32.312Z,65.14
2017-07-06T06:53:57.792Z,65.24
2017-07-06T06:54:23.269Z,65.34
2017-07-06T06:54:48.730Z,65.63
2017-07-06T06:55:14.218Z,66.05
2017-07-06T06:55:39.683Z,65.95
2017-07-06T06:56:05.132Z,65.27
2017-07-06T06:56:30.610Z,65.47
2017-07-06T06:56:56.079Z,65.37
2017-07-06T06:57:21.615Z,65.17
2017-07-06T06:57:47.066Z,65.37
2017-07-06T06:58:12.541Z,65.34
2017-07-06T06:58:38.023Z,65.17
2017-07-06T06:59:03.495Z,65.08
2017-07-06T06:59:28.942Z,65.56
2017-07-06T06:59:54.404Z,65.27
2017-07-06T07:00:19.855Z,65.17
2017-07-06T07:00:45.333Z,64.69
2017-07-06T07:01:10.818Z,65.17
2017-07-06T07:01:36.319Z,64.89
2017-07-06T07:02:01.732Z,64.89
2017-07-06T07:02:27.210Z,64.82
2017-07-06T07:02:52.733Z,64.53
2017-07-06T07:03:18.232Z,64.79
2017-07-06T07:03:43.682Z,64.5
2017-07-06T07:04:09.149Z,64.53
2017-07-06T07:04:34.616Z,64.72
2017-07-06T07:05:00.090Z,64.53
2017-07-06T07:05:25.635Z,64.63
2017-07-06T07:05:50.998Z,64.34
2017-07-06T07:06:16.484Z,64.05
2017-07-06T07:06:41.954Z,64.14
2017-07-06T07:07:07.438Z,63.95
2017-07-06T07:07:32.898Z,64.24
2017-07-06T07:07:58.313Z,63.85
2017-07-06T07:08:23.799Z,64.14
2017-07-06T07:08:49.280Z,64.34
2017-07-06T07:09:14.760Z,64.34
2017-07-06T07:09:40.279Z,64.43
2017-07-06T07:10:05.740Z,64.34
2017-07-06T07:10:31.197Z,63.95
2017-07-06T07:10:56.682Z,64.27
2017-07-06T07:11:22.206Z,63.89
2017-07-06T07:11:47.677Z,63.89
2017-07-06T07:12:13.147Z,63.5
2017-07-06T07:12:38.641Z,63.79
2017-07-06T07:13:04.112Z,63.11
2017-07-06T07:13:29.608Z,63.21
2017-07-06T07:13:55.046Z,62.34
2017-07-06T07:14:20.537Z,61.66
2017-07-06T07:14:46.026Z,62.34
2017-07-06T07:15:11.434Z,62.24
2017-07-06T07:15:36.924Z,62.34
2017-07-06T07:16:02.382Z,62.44
2017-07-06T07:16:27.819Z,62.44
2017-07-06T07:16:53.305Z,62.82
2017-07-06T07:17:18.762Z,63.21
2017-07-06T07:17:44.253Z,63.02
2017-07-06T07:18:09.721Z,63.21
2017-07-06T07:18:35.202Z,63.02
2017-07-06T07:19:00.679Z,63.31
2017-07-06T07:19:26.131Z,62.82
2017-07-06T07:19:51.629Z,62.53
2017-07-06T07:20:17.076Z,62.63
2017-07-06T07:20:42.530Z,62.82
2017-07-06T07:21:08.020Z,62.53
2017-07-06T07:21:33.477Z,62.82
2017-07-06T07:21:58.900Z,62.24
2017-07-06T07:22:24.437Z,61.37
2017-07-06T07:22:50.046Z,61.47
2017-07-06T07:23:15.758Z,61.95
2017-07-06T07:23:41.151Z,62.24
2017-07-06T07:24:06.578Z,62.05
2017-07-06T07:24:32.055Z,62.05
2017-07-06T07:24:57.531Z,62.44
2017-07-06T07:25:23.070Z,62.15
2017-07-06T07:25:48.511Z,62.53
2017-07-06T07:26:13.970Z,62.53
2017-07-06T07:26:39.431Z,62.53
2017-07-06T07:27:04.957Z,62.24
2017-07-06T07:27:30.357Z,62.27
2017-07-06T07:27:55.824Z,62.37
2017-07-06T07:28:21.267Z,62.37
2017-07-06T07:28:46.754Z,61.98
2017-07-06T07:29:12.199Z,61.4
2017-07-06T07:29:37.685Z,61.69
2017-07-06T07:30:03.148Z,61.4
2017-07-06T07:30:28.582Z,61.79
2017-07-06T07:30:54.076Z,61.4
2017-07-06T07:31:19.538Z,61.6
2017-07-06T07:31:45.002Z,61.79
2017-07-06T07:32:10.454Z,61.4
2017-07-06T07:32:35.927Z,61.43
2017-07-06T07:33:01.367Z,61.43
2017-07-06T07:33:26.827Z,61.33
2017-07-06T07:33:52.278Z,61.05
2017-07-06T07:34:17.725Z,61.24
2017-07-06T07:34:43.261Z,61.33
2017-07-06T07:35:08.672Z,60.85
2017-07-06T07:35:34.076Z,60.95
2017-07-06T07:35:59.564Z,60.95
2017-07-06T07:36:24.997Z,60.95
2017-07-06T07:36:50.455Z,61.05
2017-07-06T07:37:15.908Z,60.95
2017-07-06T07:37:41.377Z,61.15
2017-07-06T07:38:06.880Z,60.66
2017-07-06T07:38:32.323Z,60.66
2017-07-06T07:38:57.782Z,60.66
2017-07-06T07:39:23.250Z,60.75
2017-07-06T07:39:48.720Z,60.75
2017-07-06T07:40:14.207Z,60.27
2017-07-06T07:40:39.677Z,60.17
2017-07-06T07:41:05.170Z,60.01
2017-07-06T07:41:30.600Z,60.08
2017-07-06T07:41:56.102Z,60.21
2017-07-06T07:42:21.769Z,60.3
2017-07-06T07:42:47.252Z,60.11
2017-07-06T07:43:12.705Z,59.79
2017-07-06T07:43:38.174Z,59.91
2017-07-06T07:44:03.666Z,59.63
2017-07-06T07:44:29.127Z,60.01
2017-07-06T07:44:54.702Z,59.63
2017-07-06T07:45:20.114Z,60.08
2017-07-06T07:45:45.582Z,59.4
2017-07-06T07:46:11.064Z,59.5
2017-07-06T07:46:36.517Z,59.4
2017-07-06T07:47:01.989Z,59.4
2017-07-06T07:47:27.483Z,59.5
2017-07-06T07:47:52.955Z,59.4
2017-07-06T07:48:18.437Z,59.4
2017-07-06T07:48:43.880Z,59.59
2017-07-06T07:49:09.348Z,59.79
2017-07-06T07:49:34.831Z,59.98
2017-07-06T07:50:00.254Z,60.17
2017-07-06T07:50:25.735Z,60.17
2017-07-06T07:50:51.167Z,60.08
2017-07-06T07:51:16.624Z,60.11
2017-07-06T07:51:42.111Z,59.69
2017-07-06T07:52:07.554Z,59.63
2017-07-06T07:52:33.015Z,59.89
2017-07-06T07:52:58.469Z,59.89
2017-07-06T07:53:23.921Z,59.98
2017-07-06T07:53:49.454Z,60.01
2017-07-06T07:54:14.848Z,59.63
2017-07-06T07:54:40.337Z,59.59
2017-07-06T07:55:05.811Z,59.53
2017-07-06T07:55:31.307Z,60.11
2017-07-06T07:55:56.757Z,59.91
2017-07-06T07:56:22.244Z,59.82
2017-07-06T07:56:47.700Z,59.91
2017-07-06T07:57:13.177Z,59.43
2017-07-06T07:57:38.627Z,59.63
2017-07-06T07:58:04.114Z,59.33
2017-07-06T07:58:29.574Z,59.43
2017-07-06T07:58:55.052Z,59.53
2017-07-06T07:59:20.528Z,59.33
2017-07-06T07:59:46.016Z,59.53
2017-07-06T08:00:11.465Z,59.72
2017-07-06T08:00:36.931Z,58.95
2017-07-06T08:01:02.401Z,58.56
2017-07-06T08:01:27.907Z,58.56
2017-07-06T08:01:53.320Z,59.05
2017-07-06T08:02:18.799Z,58.85
2017-07-06T08:02:44.285Z,58.47
2017-07-06T08:03:09.738Z,58.56
2017-07-06T08:03:35.177Z,59.05
2017-07-06T08:04:00.661Z,58.75
2017-07-06T08:04:26.119Z,58.85
2017-07-06T08:04:51.575Z,58.85
2017-07-06T08:05:17.041Z,58.85
2017-07-06T08:05:42.527Z,59.33
2017-07-06T08:06:08.027Z,58.95
2017-07-06T08:06:33.471Z,59.43
2017-07-06T08:06:58.933Z,58.75
2017-07-06T08:07:24.410Z,58.47
2017-07-06T08:07:49.872Z,58.27
2017-07-06T08:08:15.350Z,58.17
2017-07-06T08:08:40.844Z,58.47
2017-07-06T08:09:06.331Z,59.05
2017-07-06T08:09:31.804Z,58.65
2017-07-06T08:09:57.290Z,58.85
2017-07-06T08:10:22.729Z,58.85
2017-07-06T08:10:48.216Z,58.75
2017-07-06T08:11:13.693Z,59.14
2017-07-06T08:11:39.153Z,58.56
2017-07-06T08:12:04.653Z,58.49
2017-07-06T08:12:30.168Z,58.59
2017-07-06T08:12:55.592Z,58.59
2017-07-06T08:13:21.064Z,58.49
2017-07-06T08:13:46.543Z,57.53
2017-07-06T08:14:12.000Z,57.53
2017-07-06T08:14:37.513Z,57.53
2017-07-06T08:15:02.957Z,57.14
2017-07-06T08:15:28.444Z,56.85
2017-07-06T08:15:53.881Z,57.01
2017-07-06T08:16:19.348Z,57.2
2017-07-06T08:16:44.819Z,57.01
2017-07-06T08:17:10.293Z,57.2
2017-07-06T08:17:35.734Z,56.92
2017-07-06T08:18:01.199Z,57.3
2017-07-06T08:18:26.700Z,57.4
2017-07-06T08:18:52.162Z,57.2
2017-07-06T08:19:17.639Z,57.01
2017-07-06T08:19:43.113Z,57.01
2017-07-06T08:20:08.549Z,57.01
2017-07-06T08:20:34.029Z,57.37
2017-07-06T08:20:59.477Z,57.37
2017-07-06T08:21:24.976Z,57.56
2017-07-06T08:21:50.428Z,57.86
2017-07-06T08:22:15.888Z,58.27
2017-07-06T08:22:41.416Z,58.34
2017-07-06T08:23:06.824Z,58.72
2017-07-06T08:23:32.323Z,58.63
2017-07-06T08:23:57.812Z,59.05
2017-07-06T08:24:23.277Z,58.95
2017-07-06T08:24:48.780Z,58.47
2017-07-06T08:25:14.245Z,58.37
2017-07-06T08:25:39.708Z,58.37
2017-07-06T08:26:05.183Z,58.37
2017-07-06T08:26:30.647Z,57.5
2017-07-06T08:26:56.160Z,57.5
2017-07-06T08:27:21.598Z,56.92
2017-07-06T08:27:47.106Z,57.01
2017-07-06T08:28:12.597Z,56.92
2017-07-06T08:28:38.059Z,57.01
2017-07-06T08:29:03.517Z,56.82
2017-07-06T08:29:28.991Z,56.62
2017-07-06T08:29:54.488Z,56.62
2017-07-06T08:30:19.928Z,56.72
2017-07-06T08:30:45.400Z,57.2
2017-07-06T08:31:10.893Z,57.2
2017-07-06T08:31:36.367Z,57.59
2017-07-06T08:32:01.861Z,57.5
2017-07-06T08:32:27.327Z,57.4
2017-07-06T08:32:52.812Z,57.98
2017-07-06T08:33:18.294Z,57.79
2017-07-06T08:33:43.764Z,57.69
2017-07-06T08:34:09.214Z,58.27
2017-07-06T08:34:34.689Z,58.17
2017-07-06T08:35:00.171Z,58.47
2017-07-06T08:35:25.647Z,58.17
2017-07-06T08:35:51.126Z,58.17
2017-07-06T08:36:16.612Z,58.78
2017-07-06T08:36:42.096Z,58.39
2017-07-06T08:37:07.548Z,58.78
2017-07-06T08:37:33.034Z,58.3
2017-07-06T08:37:58.508Z,56.85
2017-07-06T08:38:23.974Z,56.85
2017-07-06T08:38:49.455Z,57.23
2017-07-06T08:39:14.923Z,57.14
2017-07-06T08:39:40.394Z,56.94
2017-07-06T08:40:05.890Z,57.23
2017-07-06T08:40:31.335Z,57.04
2017-07-06T08:40:56.833Z,57.23
2017-07-06T08:41:22.274Z,56.65
2017-07-06T08:41:47.737Z,57.04
2017-07-06T08:42:13.207Z,56.65
2017-07-06T08:42:38.706Z,56.26
2017-07-06T08:43:04.155Z,56.49
2017-07-06T08:43:29.663Z,55.9
2017-07-06T08:43:55.130Z,55.9
2017-07-06T08:44:20.608Z,55.88
2017-07-06T08:44:46.099Z,55.98
2017-07-06T08:45:11.582Z,56.07
2017-07-06T08:45:37.048Z,55.88
2017-07-06T08:46:02.511Z,56.75
2017-07-06T08:46:27.966Z,56.36
2017-07-06T08:46:53.478Z,56.46
2017-07-06T08:47:19.043Z,56.46
2017-07-06T08:47:44.496Z,56.56
2017-07-06T08:48:09.952Z,56.65
2017-07-06T08:48:35.425Z,56.36
2017-07-06T08:49:00.913Z,56.56
2017-07-06T08:49:26.376Z,56.59
2017-07-06T08:49:51.838Z,57.07
2017-07-06T08:50:17.309Z,56.97
2017-07-06T08:50:42.793Z,56.87
2017-07-06T08:51:08.256Z,56.87
2017-07-06T08:51:33.712Z,56.2
2017-07-06T08:51:59.314Z,55.42
2017-07-06T08:52:24.697Z,55.52
2017-07-06T08:52:50.149Z,55.81
2017-07-06T08:53:15.629Z,55.62
2017-07-06T08:53:41.067Z,55.04
2017-07-06T08:54:06.528Z,55.13
2017-07-06T08:54:32.026Z,54.84
2017-07-06T08:54:57.489Z,54.94
2017-07-06T08:55:22.941Z,55.42
2017-07-06T08:55:48.407Z,55.44
2017-07-06T08:56:13.850Z,55.52
2017-07-06T08:56:39.316Z,55.13
2017-07-06T08:57:04.796Z,54.38
2017-07-06T08:57:30.265Z,54.28
2017-07-06T08:57:55.775Z,53.97
2017-07-06T08:58:21.201Z,53.97
2017-07-06T08:58:46.679Z,53.99
2017-07-06T08:59:12.184Z,54.19
2017-07-06T08:59:37.641Z,54.58
2017-07-06T09:00:03.129Z,54.26
2017-07-06T09:00:28.622Z,53.51
2017-07-06T09:00:54.093Z,53.67
2017-07-06T09:01:19.541Z,53.67
2017-07-06T09:01:45.047Z,53.39
2017-07-06T09:02:10.493Z,53.97
2017-07-06T09:02:35.990Z,53.77
2017-07-06T09:03:01.464Z,53.67
2017-07-06T09:03:26.910Z,54.55
2017-07-06T09:03:52.374Z,54.06
2017-07-06T09:04:17.844Z,54.64
2017-07-06T09:04:43.327Z,54.74
2017-07-06T09:05:08.776Z,54.48
2017-07-06T09:05:34.253Z,54.19
2017-07-06T09:05:59.754Z,54.19
2017-07-06T09:06:25.226Z,54.28
2017-07-06T09:06:50.733Z,54.28
2017-07-06T09:07:16.192Z,54.28
2017-07-06T09:07:41.633Z,54.58
2017-07-06T09:08:07.107Z,54.09
2017-07-06T09:08:32.586Z,54.19
2017-07-06T09:08:58.048Z,54.38
2017-07-06T09:09:23.518Z,54.09
2017-07-06T09:09:49.003Z,54.28
2017-07-06T09:10:14.477Z,54.58
2017-07-06T09:10:39.935Z,54.58
2017-07-06T09:11:05.430Z,54.77
2017-07-06T09:11:30.890Z,54.67
2017-07-06T09:11:56.361Z,54.67
2017-07-06T09:12:21.829Z,54.96
2017-07-06T09:12:47.298Z,54.96
2017-07-06T09:13:12.754Z,54.96
2017-07-06T09:13:38.226Z,54.86
2017-07-06T09:14:03.697Z,55.06
2017-07-06T09:14:29.159Z,54.96
2017-07-06T09:14:54.665Z,54.96
2017-07-06T09:15:20.188Z,54.99
2017-07-06T09:15:45.660Z,54.9
2017-07-06T09:16:11.134Z,54.9
2017-07-06T09:16:36.618Z,54.7
2017-07-06T09:17:02.080Z,55.02
2017-07-06T09:17:27.550Z,54.31
2017-07-06T09:17:53.071Z,54.24
2017-07-06T09:18:18.552Z,54.14
2017-07-06T09:18:44.085Z,53.95
2017-07-06T09:19:09.518Z,53.75
2017-07-06T09:19:34.955Z,53.85
2017-07-06T09:20:00.451Z,53.95
2017-07-06T09:20:25.944Z,53.85
2017-07-06T09:20:51.452Z,53.95
2017-07-06T09:21:16.903Z,53.56
2017-07-06T09:21:42.397Z,53.08
2017-07-06T09:22:07.846Z,53.08
2017-07-06T09:22:33.351Z,52.78
2017-07-06T09:22:58.800Z,52.69
2017-07-06T09:23:24.244Z,52.69
2017-07-06T09:23:49.730Z,52.01
2017-07-06T09:24:15.236Z,52.01
2017-07-06T09:24:40.745Z,52.01
2017-07-06T09:25:06.157Z,52.59
2017-07-06T09:25:31.620Z,52.69
2017-07-06T09:25:57.098Z,52.5
2017-07-06T09:26:22.612Z,52.5
2017-07-06T09:26:48.106Z,52.98
2017-07-06T09:27:13.570Z,53.27
2017-07-06T09:27:39.060Z,53.17
2017-07-06T09:28:04.526Z,53.08
2017-07-06T09:28:29.999Z,53.37
2017-07-06T09:28:55.472Z,53.27
2017-07-06T09:29:20.919Z,52.03
2017-07-06T09:29:46.397Z,52.03
2017-07-06T09:30:11.868Z,52.42
2017-07-06T09:30:37.366Z,52.42
2017-07-06T09:31:02.839Z,52.23
2017-07-06T09:31:28.297Z,52.72
2017-07-06T09:31:53.769Z,52.23
2017-07-06T09:32:19.271Z,51.84
2017-07-06T09:32:44.732Z,51.45
2017-07-06T09:33:10.226Z,50.87
2017-07-06T09:33:35.715Z,50.77
2017-07-06T09:34:01.157Z,50.77
2017-07-06T09:34:26.620Z,50.77
2017-07-06T09:34:52.129Z,51.16
2017-07-06T09:35:17.551Z,50.68
2017-07-06T09:35:43.027Z,50.68
2017-07-06T09:36:08.493Z,51.26
2017-07-06T09:36:33.968Z,51.35
2017-07-06T09:36:59.452Z,51.65
2017-07-06T09:37:24.924Z,51.93
2017-07-06T09:37:50.385Z,51.75
2017-07-06T09:38:15.845Z,51.93
2017-07-06T09:38:41.339Z,52.03
2017-07-06T09:39:06.787Z,52.33
2017-07-06T09:39:32.248Z,52.13
2017-07-06T09:39:57.716Z,51.84
2017-07-06T09:40:23.171Z,51.91
2017-07-06T09:40:48.641Z,51.91
2017-07-06T09:41:14.124Z,52.01
2017-07-06T09:41:39.614Z,51.91
2017-07-06T09:42:05.111Z,51.91
2017-07-06T09:42:30.575Z,51.89
2017-07-06T09:42:56.079Z,51.98
2017-07-06T09:43:21.573Z,51.98
2017-07-06T09:43:47.003Z,52.76
2017-07-06T09:44:12.474Z,52.47
2017-07-06T09:44:37.958Z,53.05
2017-07-06T09:45:03.404Z,53.34
2017-07-06T09:45:28.881Z,52.95
2017-07-06T09:45:54.362Z,53.15
2017-07-06T09:46:19.837Z,53.15
2017-07-06T09:46:45.304Z,53.34
2017-07-06T09:47:10.770Z,53.47
2017-07-06T09:47:36.248Z,53.53
2017-07-06T09:48:01.704Z,53.47
2017-07-06T09:48:27.176Z,53.75
2017-07-06T09:48:52.670Z,53.56
2017-07-06T09:49:18.143Z,53.27
2017-07-06T09:49:43.633Z,52.5
2017-07-06T09:50:09.069Z,52.5
2017-07-06T09:50:34.543Z,52.4
2017-07-06T09:51:00.032Z,52.11
2017-07-06T09:51:25.502Z,52.5
2017-07-06T09:51:50.983Z,52.5
2017-07-06T09:52:16.450Z,52.5
2017-07-06T09:52:41.918Z,52.4
2017-07-06T09:53:07.371Z,51.81
2017-07-06T09:53:32.833Z,51.72
2017-07-06T09:53:58.322Z,52.01
2017-07-06T09:54:23.804Z,51.72
2017-07-06T09:54:49.266Z,51.72
2017-07-06T09:55:14.722Z,52.01
2017-07-06T09:55:40.204Z,51.23
2017-07-06T09:56:05.684Z,51.04
2017-07-06T09:56:31.164Z,50.77
2017-07-06T09:56:56.654Z,51.06
2017-07-06T09:57:22.126Z,51.45
2017-07-06T09:57:47.593Z,51.26
2017-07-06T09:58:13.064Z,51.16
2017-07-06T09:58:38.566Z,51.26
2017-07-06T09:59:04.003Z,51.16
2017-07-06T09:59:29.514Z,51.65
2017-07-06T09:59:54.966Z,51.84
2017-07-06T10:00:20.446Z,51.84
2017-07-06T10:00:45.945Z,51.93
2017-07-06T10:01:11.391Z,51.16
2017-07-06T10:01:36.892Z,51.26
2017-07-06T10:02:02.345Z,51.35
2017-07-06T10:02:27.807Z,50.99
2017-07-06T10:02:53.283Z,50.89
2017-07-06T10:03:18.750Z,50.6
2017-07-06T10:03:44.418Z,50.6
2017-07-06T10:04:09.890Z,50.41
2017-07-06T10:04:35.362Z,50.21
2017-07-06T10:05:00.833Z,49.63
2017-07-06T10:05:26.319Z,49.54
2017-07-06T10:05:51.753Z,49.73
2017-07-06T10:06:17.250Z,50.31
2017-07-06T10:06:42.734Z,50.21
2017-07-06T10:07:08.217Z,50.21
2017-07-06T10:07:33.706Z,50.6
2017-07-06T10:07:59.164Z,50.51
2017-07-06T10:08:24.642Z,50.7
2017-07-06T10:08:50.093Z,50.7
2017-07-06T10:09:15.596Z,50.02
2017-07-06T10:09:41.034Z,49.73
2017-07-06T10:10:06.523Z,49.73
2017-07-06T10:10:31.972Z,49.82
2017-07-06T10:10:57.449Z,49.44
2017-07-06T10:11:22.922Z,49.15
2017-07-06T10:11:48.401Z,48.75
2017-07-06T10:12:13.910Z,49.54
2017-07-06T10:12:39.314Z,49.46
2017-07-06T10:13:04.794Z,49.24
2017-07-06T10:13:30.272Z,49.27
2017-07-06T10:13:55.736Z,49.07
2017-07-06T10:14:21.271Z,47.52
2017-07-06T10:14:46.702Z,47.4
2017-07-06T10:15:12.203Z,46.94
2017-07-06T10:15:37.659Z,47.78
2017-07-06T10:16:03.114Z,47.88
2017-07-06T10:16:28.615Z,48.27
2017-07-06T10:16:54.070Z,48.08
2017-07-06T10:17:19.533Z,48.37
2017-07-06T10:17:45.005Z,48.47
2017-07-06T10:18:10.458Z,48.27
2017-07-06T10:18:35.966Z,47.78
2017-07-06T10:19:01.369Z,47.78
2017-07-06T10:19:26.856Z,47.78
2017-07-06T10:19:52.335Z,48.18
2017-07-06T10:20:17.767Z,47.78
2017-07-06T10:20:43.261Z,47.88
2017-07-06T10:21:08.723Z,47.49
2017-07-06T10:21:34.252Z,47.3
2017-07-06T10:21:59.700Z,46.91
2017-07-06T10:22:25.178Z,47.01
2017-07-06T10:22:50.653Z,46.91
2017-07-06T10:23:16.120Z,47.4
2017-07-06T10:23:41.625Z,46.91
2017-07-06T10:24:07.082Z,47.49
2017-07-06T10:24:32.537Z,47.49
2017-07-06T10:24:58.025Z,47.98
2017-07-06T10:25:23.497Z,47.98
2017-07-06T10:25:48.975Z,47.3
2017-07-06T10:26:14.446Z,47.49
2017-07-06T10:26:39.950Z,47.49
2017-07-06T10:27:05.421Z,47.66
2017-07-06T10:27:31.034Z,47.66
2017-07-06T10:27:56.368Z,48.25
2017-07-06T10:28:21.838Z,48.05
2017-07-06T10:28:47.312Z,48.35
2017-07-06T10:29:12.808Z,47.38
2017-07-06T10:29:38.272Z,47.38
2017-07-06T10:30:03.742Z,46.5
2017-07-06T10:30:29.213Z,46.5
2017-07-06T10:30:54.727Z,46.11
2017-07-06T10:31:20.186Z,46.41
2017-07-06T10:31:45.674Z,46.11
2017-07-06T10:32:11.162Z,46.31
2017-07-06T10:32:36.599Z,46.5
2017-07-06T10:33:02.097Z,46.98
2017-07-06T10:33:27.557Z,47.18
2017-07-06T10:33:53.037Z,47.18
2017-07-06T10:34:18.510Z,46.79
2017-07-06T10:34:43.982Z,46.5
2017-07-06T10:35:09.442Z,47.08
2017-07-06T10:35:34.932Z,47.3
2017-07-06T10:36:00.414Z,47.2
2017-07-06T10:36:25.886Z,46.42
2017-07-06T10:36:51.425Z,45.62
2017-07-06T10:37:16.872Z,45.84
2017-07-06T10:37:42.346Z,45.92
2017-07-06T10:38:07.822Z,46.23
2017-07-06T10:38:33.329Z,46.33
2017-07-06T10:38:58.749Z,46.5
2017-07-06T10:39:24.228Z,46.5
2017-07-06T10:39:49.706Z,46.72
2017-07-06T10:40:15.180Z,46.79
2017-07-06T10:40:40.650Z,46.72
2017-07-06T10:41:06.113Z,46.62
2017-07-06T10:41:31.596Z,46.42
2017-07-06T10:41:57.068Z,46.42
2017-07-06T10:42:22.544Z,46.23
2017-07-06T10:42:48.003Z,46.14
2017-07-06T10:43:13.472Z,46.23
2017-07-06T10:43:38.939Z,46.42
2017-07-06T10:44:04.401Z,46.42
2017-07-06T10:44:29.907Z,46.91
2017-07-06T10:44:55.387Z,46.81
2017-07-06T10:45:20.839Z,46.52
2017-07-06T10:45:46.290Z,46.42
2017-07-06T10:46:11.760Z,46.72
2017-07-06T10:46:37.244Z,46.84
2017-07-06T10:47:02.707Z,46.74
2017-07-06T10:47:28.166Z,46.55
2017-07-06T10:47:53.637Z,46.45
2017-07-06T10:48:19.157Z,46.64
2017-07-06T10:48:44.595Z,46.55
2017-07-06T10:49:10.073Z,46.74
2017-07-06T10:49:35.564Z,46.64
2017-07-06T10:50:01.040Z,46.64
2017-07-06T10:50:26.484Z,46.25
2017-07-06T10:50:51.946Z,46.35
2017-07-06T10:51:17.436Z,45.09
2017-07-06T10:51:42.871Z,44.89
2017-07-06T10:52:08.373Z,45.18
2017-07-06T10:52:33.809Z,44.89
2017-07-06T10:52:59.272Z,44.99
2017-07-06T10:53:24.752Z,44.89
2017-07-06T10:53:50.216Z,45.18
2017-07-06T10:54:15.670Z,44.99
2017-07-06T10:54:41.146Z,44.21
2017-07-06T10:55:06.615Z,44.31
2017-07-06T10:55:32.082Z,43.92
2017-07-06T10:55:57.575Z,44.31
2017-07-06T10:56:23.039Z,44.51
2017-07-06T10:56:48.508Z,44.41
2017-07-06T10:57:13.981Z,44.51
2017-07-06T10:57:39.437Z,44.68
2017-07-06T10:58:04.896Z,44.38
2017-07-06T10:58:30.384Z,44.87
2017-07-06T10:58:55.909Z,45.26
2017-07-06T10:59:21.429Z,45.84
2017-07-06T10:59:46.950Z,46.04
2017-07-06T11:00:12.392Z,45.94